• Join FlightAware (Why Join?)
  • Login
  • US Flag 
04:14PM EDT


 

Airport Tracker/Info


-or-


 

Live Flight TrackerFlight Track Log ✈ FLG4151 ✈ 15-Jun-2013 ✈ KDTW - KMBS

Flight Track Log - Related Links

Times and Time Zones

All times are in EDT time to prevent confusion due to time zone crossing. See the FLG4151 flight status page for this flight to view local times or setup timezone preferences in your user account.

Time Position Orientation Groundspeed Altitude Reporting Facility
EDT Latitude Longitude Course Direction KTS MPH feet Rate Location/Type
12:44PM 42.1994 -83.3581 North 157 181 1,300  Level Cleveland Center
12:46PM 42.1475 -83.4369 228° Southwest 208 239 4,500 2,100 Climbing Cleveland Center
12:47PM 42.1558 -83.5214 278° West 271 312 6,700 2,520 Climbing Cleveland Center
12:48PM 42.5438 -83.3500 North  Level FlightAware Approximate
12:48PM 42.1914 -83.5933 304° West 265 305 9,200  Level Cleveland Center
12:49PM 42.6297 -83.3500 North  Level FlightAware Approximate
12:49PM 42.2653 -83.6444 333° Northwest 283 326 11,700  Level Cleveland Center
12:50PM 42.7156 -83.3500 North  Level FlightAware Approximate
12:50PM 42.3508 -83.6400 North 359 413 12,000  Level Cleveland Center
12:50PM 42.3889 -83.6194 22° Northeast 353 406 12,000  Level Cleveland Center
12:51PM 42.4711 -83.5783 20° North 401 461 12,000  Level Cleveland Center
12:52PM 42.5578 -83.5375 19° North 350 403 12,000  Level Cleveland Center
12:53PM 42.6442 -83.4964 19° North 330 380 12,000  Level Cleveland Center
12:54PM 42.7308 -83.4550 19° North 324 373 12,000  Level Cleveland Center
12:55PM 42.8194 -83.4139 19° North 330 380 12,000  Level Cleveland Center
12:56PM 42.9058 -83.3725 19° North 330 380 12,000 -180 Level Cleveland Center
12:57PM 42.9978 -83.3650 North 324 373 11,700 -540 Descending Cleveland Center
12:58PM 43.0847 -83.3833 351° North 319 367 11,000 -600 Descending Cleveland Center
12:59PM 43.1431 -83.4742 311° West 297 342 10,600 -1,020 Descending Cleveland Center
01:00PM 43.1972 -83.5536 313° West 300 345 9,000 -1,680 Descending Cleveland Center
01:01PM 43.2433 -83.6300 310° West 272 313 7,300 -1,740 Descending Cleveland Center
01:02PM 43.2919 -83.6836 321° Northwest 254 292 5,600 -1,740 Descending Cleveland Center
01:03PM 43.3508 -83.7408 325° Northwest 254 292 3,900 -1,500 Descending Cleveland Center
01:04PM 43.4158 -83.7986 327° Northwest 254 292 2,600 -660 Descending Cleveland Center
01:05PM 43.4728 -83.8500 327° Northwest 254 292 2,600  Level Cleveland Center
01:06PM 43.5297 -83.9019 327° Northwest 254 292 2,600  Level Cleveland Center